Time;durP1;ratioP1;P1;durP2;ratioP2;P2;SDS_P1;SDS_P2;PMS_P1;PMS_P2;Temp;Humidity;BMP_temperature;BMP_pressure;BME280_temperature;BME280_humidity;BME280_pressure;Samples;Min_cycle;Max_cycle;Signal;HPM_P1;HPM_P2
2022/03/22 00:01:26;;;;;;;42.45;19.95;;;153.60;1587.20;;;;;;5053060;28;20024;-77
2022/03/22 00:03:52;;;;;;;39.97;20.13;;;128.90;1612.80;;;;;;5054228;28;20021;-74
2022/03/22 00:06:20;;;;;;;;;;;128.80;1612.80;;;;;;5042020;28;20037;-75
2022/03/22 00:08:46;;;;;;;43.22;19.90;;;128.60;1612.80;;;;;;5047920;28;19905;-75
2022/03/22 00:11:13;;;;;;;;;;;128.70;1612.80;;;;;;5052899;28;20037;-75
2022/03/22 00:13:42;;;;;;;48.17;22.37;;;128.80;1612.80;;;;;;5054158;28;19908;-75
2022/03/22 00:16:08;;;;;;;40.47;20.55;;;128.80;1612.80;;;;;;5048021;28;20116;-75
2022/03/22 00:18:35;;;;;;;46.92;21.85;;;128.80;1587.20;;;;;;5042147;28;20104;-75
2022/03/22 00:21:00;;;;;;;53.92;24.33;;;128.90;1587.20;;;;;;5045738;28;20017;-74
2022/03/22 00:23:26;;;;;;;49.63;23.52;;;128.80;1587.20;;;;;;5052824;28;20568;-75
2022/03/22 00:25:52;;;;;;;46.67;24.05;;;128.80;1587.20;;;;;;5052110;28;20044;-76
2022/03/22 00:28:19;;;;;;;;;;;128.90;1587.20;;;;;;5054262;28;20044;-75
2022/03/22 00:30:45;;;;;;;45.05;21.48;;;153.60;1587.20;;;;;;5052726;28;19912;-75
2022/03/22 00:33:10;;;;;;;;;;;128.90;1587.20;;;;;;5054164;28;20017;-74
2022/03/22 00:35:38;;;;;;;42.08;20.10;;;128.90;1587.20;;;;;;5053478;28;19966;-75
2022/03/22 00:38:11;;;;;;;38.22;18.08;;;128.90;1587.20;;;;;;5053679;28;20063;-76
2022/03/22 00:40:38;;;;;;;37.50;19.52;;;153.60;1561.60;;;;;;5052203;28;20477;-78
2022/03/22 00:43:04;;;;;;;35.50;18.27;;;153.70;1561.60;;;;;;5052668;28;20065;-75
2022/03/22 00:45:32;;;;;;;45.22;21.05;;;153.60;1561.60;;;;;;5053580;28;20017;-75
2022/03/22 00:47:59;;;;;;;43.72;21.88;;;128.90;1561.60;;;;;;5052557;28;20116;-76
2022/03/22 00:50:28;;;;;;;46.60;22.52;;;128.90;1561.60;;;;;;5052942;28;20143;-75
2022/03/22 00:52:56;;;;;;;37.28;20.42;;;128.80;1561.60;;;;;;5053175;28;20021;-76
2022/03/22 00:55:23;;;;;;;44.05;23.70;;;128.70;1561.60;;;;;;5052725;28;20158;-75
2022/03/22 00:57:53;;;;;;;46.33;22.40;;;128.70;1561.60;;;;;;5052454;28;20033;-75
2022/03/22 01:00:20;;;;;;;45.50;21.30;;;128.70;1561.60;;;;;;5052479;28;20033;-75
2022/03/22 01:02:49;;;;;;;43.50;21.25;;;128.80;1561.60;;;;;;5053093;28;20108;-75
2022/03/22 01:05:19;;;;;;;39.35;18.60;;;128.90;1536.00;;;;;;5050567;28;20024;-75
2022/03/22 01:07:50;;;;;;;35.78;18.02;;;153.60;1536.00;;;;;;5051650;28;20615;-75
2022/03/22 01:10:18;;;;;;;40.15;19.42;;;128.90;1536.00;;;;;;5050580;28;20021;-75
2022/03/22 01:12:45;;;;;;;40.50;20.33;;;128.90;1536.00;;;;;;5053002;28;20154;-75
2022/03/22 01:15:16;;;;;;;37.75;19.58;;;153.80;1536.00;;;;;;5053015;28;20484;-74
2022/03/22 01:17:43;;;;;;;36.03;19.90;;;128.90;1536.00;;;;;;5051711;28;20024;-76
2022/03/22 01:20:10;;;;;;;34.70;18.17;;;128.70;1536.00;;;;;;5051648;28;20052;-75
2022/03/22 01:22:40;;;;;;;44.25;19.92;;;128.50;1561.60;;;;;;5050072;28;20417;-76
2022/03/22 01:25:08;;;;;;;40.78;20.23;;;128.40;1587.20;;;;;;5052667;28;20551;-75
2022/03/22 01:27:36;;;;;;;50.00;20.85;;;128.40;1587.20;;;;;;5051390;28;20041;-75
2022/03/22 01:30:05;;;;;;;42.40;18.55;;;128.30;1587.20;;;;;;5051647;28;20488;-75
2022/03/22 01:32:31;;;;;;;36.00;18.40;;;128.20;1612.80;;;;;;5051578;28;20029;-78
2022/03/22 01:34:56;;;;;;;38.25;19.25;;;128.30;1638.40;;;;;;5048845;28;20029;-76
2022/03/22 01:37:22;;;;;;;;;;;128.20;1689.60;;;;;;5053225;28;20032;-76
2022/03/22 01:39:48;;;;;;;36.92;19.02;;;128.10;1715.20;;;;;;5051601;28;19912;-76
2022/03/22 01:42:13;;;;;;;;;;;103.30;1689.60;;;;;;5051891;28;20100;-75
2022/03/22 01:44:39;;;;;;;36.42;18.45;;;103.20;1689.60;;;;;;5051346;28;20352;-75
2022/03/22 01:47:05;;;;;;;;;;;103.10;1689.60;;;;;;5053122;28;20040;-75
2022/03/22 01:49:31;;;;;;;48.20;21.08;;;103.10;1689.60;;;;;;5051283;28;19912;-75
2022/03/22 01:51:57;;;;;;;;;;;103.20;1664.00;;;;;;5053006;28;20381;-76
2022/03/22 01:54:23;;;;;;;37.20;19.00;;;103.20;1664.00;;;;;;5051320;28;19911;-75
2022/03/22 01:56:49;;;;;;;40.88;19.92;;;103.30;1638.40;;;;;;5051131;28;20503;-75
2022/03/22 01:59:15;;;;;;;;;;;128.00;1638.40;;;;;;5051756;28;20032;-75
2022/03/22 02:07:14;;;;;;;44.25;21.83;;;128.10;1612.80;;;;;;5055836;28;20515;-75
2022/03/22 02:09:41;;;;;;;40.85;21.10;;;128.20;1612.80;;;;;;5052690;28;20392;-75
2022/03/22 02:12:07;;;;;;;47.20;23.95;;;128.20;1612.80;;;;;;5055322;28;20495;-74
2022/03/22 02:14:33;;;;;;;47.20;23.92;;;128.30;1612.80;;;;;;5056405;28;20139;-75
2022/03/22 02:17:09;;;;;;;44.22;21.25;;;128.30;1612.80;;;;;;5054927;28;20174;-75
2022/03/22 02:19:38;;;;;;;44.47;22.60;;;128.20;1612.80;;;;;;5056183;28;20017;-75
2022/03/22 02:22:11;;;;;;;57.17;25.15;;;128.20;1612.80;;;;;;5054814;28;20033;-76
2022/03/22 02:24:37;;;;;;;52.40;23.48;;;128.10;1638.40;;;;;;5055998;28;20021;-75
2022/03/22 02:27:05;;;;;;;46.53;23.75;;;103.30;1612.80;;;;;;5055790;28;20137;-76
2022/03/22 02:29:31;;;;;;;52.72;25.52;;;103.30;1638.40;;;;;;5054828;28;20021;-76
2022/03/22 02:31:57;;;;;;;;;;;103.10;1664.00;;;;;;5056368;28;20099;-76
2022/03/22 02:34:22;;;;;;;42.50;21.25;;;103.20;1689.60;;;;;;5054708;28;19946;-75
2022/03/22 02:36:48;;;;;;;44.45;21.42;;;103.00;1715.20;;;;;;5054676;28;20025;-75
2022/03/22 02:39:14;;;;;;;;;;;103.00;1715.20;;;;;;5056320;28;20121;-76
2022/03/22 02:41:42;;;;;;;44.20;21.77;;;102.90;1740.80;;;;;;5054466;28;20280;-75
2022/03/22 02:44:10;;;;;;;52.38;23.40;;;102.80;1740.80;;;;;;5041593;28;20029;-75
2022/03/22 02:46:37;;;;;;;46.35;24.40;;;102.80;1740.80;;;;;;5051100;28;20120;-75
2022/03/22 02:49:03;;;;;;;44.55;23.05;;;102.70;1766.40;;;;;;5054609;28;20029;-76
2022/03/22 02:51:29;;;;;;;49.33;22.92;;;102.70;1766.40;;;;;;5054402;28;20024;-76
2022/03/22 02:53:55;;;;;;;56.08;25.70;;;102.70;1766.40;;;;;;5055543;28;20102;-75
2022/03/22 02:56:21;;;;;;;48.42;24.23;;;102.70;1766.40;;;;;;5054320;28;20116;-76
2022/03/22 02:58:47;;;;;;;54.10;25.42;;;102.70;1740.80;;;;;;5054269;28;20444;-75
2022/03/22 03:01:12;;;;;;;;;;;102.70;1740.80;;;;;;5054657;28;20405;-75
2022/03/22 03:03:38;;;;;;;49.50;24.20;;;102.80;1715.20;;;;;;5055364;28;19999;-75
2022/03/22 03:06:04;;;;;;;;;;;102.80;1715.20;;;;;;5054656;28;20119;-76
2022/03/22 03:08:29;;;;;;;54.67;25.23;;;102.80;1715.20;;;;;;5055446;28;19905;-75
2022/03/22 03:10:55;;;;;;;;;;;102.90;1689.60;;;;;;5055814;28;20041;-76
2022/03/22 03:13:21;;;;;;;41.15;22.42;;;103.00;1689.60;;;;;;5051370;28;19905;-76
2022/03/22 03:15:47;;;;;;;;;;;102.80;1689.60;;;;;;5054983;28;20457;-76
2022/03/22 03:18:13;;;;;;;41.95;23.73;;;102.90;1715.20;;;;;;5054030;28;19908;-74
2022/03/22 03:20:39;;;;;;;;;;;102.80;1715.20;;;;;;5054079;28;20025;-75
2022/03/22 03:23:05;;;;;;;57.40;24.27;;;102.80;1689.60;;;;;;5053769;28;19905;-76
2022/03/22 03:25:31;;;;;;;;;;;102.80;1689.60;;;;;;5054004;28;20067;-76
2022/03/22 03:27:57;;;;;;;49.28;24.83;;;102.80;1664.00;;;;;;5054940;28;19978;-76
2022/03/22 03:30:22;;;;;;;;;;;102.80;1664.00;;;;;;5052730;28;20440;-76
2022/03/22 03:32:48;;;;;;;45.50;22.73;;;102.90;1664.00;;;;;;5054924;28;19904;-78
2022/03/22 03:35:14;;;;;;;;;;;102.90;1664.00;;;;;;5054273;28;20036;-75
2022/03/22 03:37:46;;;;;;;47.58;22.90;;;103.00;1638.40;;;;;;5054719;28;19999;-75
2022/03/22 03:40:13;;;;;;;47.92;23.58;;;102.90;1638.40;;;;;;5053580;28;20031;-75
2022/03/22 03:42:47;;;;;;;54.40;25.42;;;103.00;1638.40;;;;;;5054574;28;20013;-75
2022/03/22 03:47:58;;;;;;;58.15;25.48;;;102.90;1638.40;;;;;;5053920;28;20048;-75
2022/03/22 03:50:24;;;;;;;57.00;26.85;;;102.90;1638.40;;;;;;5053265;28;20053;-75
2022/03/22 03:52:50;;;;;;;48.90;24.60;;;102.90;1664.00;;;;;;5053160;28;20521;-75
2022/03/22 03:55:16;;;;;;;57.63;25.65;;;102.90;1664.00;;;;;;5053223;28;20113;-75
2022/03/22 03:57:44;;;;;;;58.33;26.48;;;102.90;1664.00;;;;;;5053035;28;20499;-75
2022/03/22 04:00:10;;;;;;;58.75;27.85;;;102.90;1664.00;;;;;;5053060;28;20021;-75
2022/03/22 04:02:36;;;;;;;60.22;25.75;;;102.90;1664.00;;;;;;5054492;28;20073;-79
2022/03/22 04:05:02;;;;;;;60.58;28.15;;;102.90;1689.60;;;;;;5054145;28;20021;-74
2022/03/22 04:07:28;;;;;;;;;;;102.80;1689.60;;;;;;5053277;28;20489;-75
2022/03/22 04:09:54;;;;;;;60.33;25.92;;;102.90;1689.60;;;;;;5054106;28;19904;-75
2022/03/22 04:12:22;;;;;;;56.17;26.17;;;102.90;1689.60;;;;;;5052860;28;20017;-75
2022/03/22 04:14:51;;;;;;;66.50;27.90;;;102.80;1689.60;;;;;;5052707;28;20104;-75
2022/03/22 04:17:18;;;;;;;54.65;27.05;;;102.80;1689.60;;;;;;5052830;28;20020;-75
2022/03/22 04:19:45;;;;;;;57.38;26.73;;;102.80;1689.60;;;;;;5053890;28;20017;-76
2022/03/22 04:22:11;;;;;;;57.08;27.85;;;102.80;1689.60;;;;;;5053809;28;20020;-76
2022/03/22 04:24:37;;;;;;;60.13;27.42;;;102.80;1664.00;;;;;;5052690;28;20488;-76
2022/03/22 04:32:43;;;;;;;62.05;28.58;;;102.70;1689.60;;;;;;5052001;28;20155;-75
2022/03/22 04:35:20;;;;;;;63.17;26.30;;;102.60;1689.60;;;;;;5050285;28;20044;-75
2022/03/22 04:37:49;;;;;;;56.05;25.85;;;102.60;1689.60;;;;;;5052286;28;20021;-75
2022/03/22 04:40:15;;;;;;;55.95;26.23;;;102.60;1715.20;;;;;;5052766;28;20033;-75
2022/03/22 04:42:42;;;;;;;60.47;27.38;;;102.50;1715.20;;;;;;5052212;28;20036;-75
2022/03/22 04:45:09;;;;;;;57.85;27.10;;;102.60;1715.20;;;;;;5052444;28;20025;-76
2022/03/22 04:47:35;;;;;;;61.30;29.35;;;77.70;1740.80;;;;;;5053488;28;20043;-76
2022/03/22 04:50:01;;;;;;;;;;;77.70;1792.00;;;;;;5052901;28;20043;-76
2022/03/22 04:57:55;;;;;;;67.00;30.25;;;77.40;1843.20;;;;;;5052097;28;20090;-76
2022/03/22 05:00:21;;;;;;;63.83;30.05;;;77.40;1843.20;;;;;;5053309;28;20021;-76
2022/03/22 05:02:49;;;;;;;67.70;28.60;;;77.30;1868.80;;;;;;5051964;28;20036;-76
2022/03/22 05:05:15;;;;;;;79.55;35.47;;;77.30;1868.80;;;;;;5051856;28;20021;-76
2022/03/22 05:07:41;;;;;;;76.85;34.47;;;77.40;1868.80;;;;;;5052180;28;20037;-76
2022/03/22 05:10:08;;;;;;;81.90;36.60;;;77.40;1843.20;;;;;;5049110;28;20017;-76
2022/03/22 05:12:37;;;;;;;71.10;33.05;;;77.50;1843.20;;;;;;5051986;28;20025;-75
2022/03/22 05:15:03;;;;;;;76.50;35.22;;;77.50;1843.20;;;;;;5051690;28;20167;-75
2022/03/22 05:17:29;;;;;;;75.47;33.88;;;77.60;1817.60;;;;;;5051752;28;20017;-76
2022/03/22 05:19:55;;;;;;;78.30;33.67;;;77.70;1817.60;;;;;;5052182;28;20045;-75
2022/03/22 05:22:21;;;;;;;66.07;31.20;;;77.70;1792.00;;;;;;5052700;28;20096;-76
2022/03/22 05:24:47;;;;;;;58.63;26.67;;;102.40;1766.40;;;;;;5051592;28;20023;-76
2022/03/22 05:27:13;;;;;;;;;;;102.50;1766.40;;;;;;5051930;28;20505;-77
2022/03/22 05:29:38;;;;;;;87.55;38.83;;;102.80;1740.80;;;;;;5051778;28;19977;-76
2022/03/22 05:32:05;;;;;;;68.55;32.90;;;102.60;1740.80;;;;;;5051607;28;20488;-76
2022/03/22 05:34:30;;;;;;;76.85;32.90;;;102.50;1740.80;;;;;;5051353;28;20480;-75
2022/03/22 05:36:56;;;;;;;72.93;35.03;;;102.70;1715.20;;;;;;5052785;28;20021;-75
2022/03/22 05:39:22;;;;;;;;;;;102.70;1740.80;;;;;;5053003;28;20029;-75
2022/03/22 05:41:48;;;;;;;134.55;52.45;;;102.60;1740.80;;;;;;5051429;28;20011;-75
2022/03/22 05:44:14;;;;;;;94.03;45.35;;;102.70;1740.80;;;;;;5051592;28;20086;-75
2022/03/22 05:46:43;;;;;;;108.65;47.65;;;102.80;1715.20;;;;;;5051449;28;20067;-75
2022/03/22 05:49:09;;;;;;;113.60;46.78;;;102.80;1715.20;;;;;;5049923;28;20037;-76
2022/03/22 05:51:36;;;;;;;112.95;50.80;;;102.90;1715.20;;;;;;5051038;28;20056;-75
2022/03/22 05:54:02;;;;;;;111.10;48.88;;;102.90;1715.20;;;;;;5051507;28;20025;-77
2022/03/22 05:56:29;;;;;;;100.00;47.55;;;102.90;1715.20;;;;;;5052365;28;20025;-75
2022/03/22 05:58:55;;;;;;;84.03;36.95;;;103.00;1715.20;;;;;;5052644;28;20481;-74
2022/03/22 06:01:21;;;;;;;61.45;27.85;;;103.00;1715.20;;;;;;5051438;28;20028;-76
2022/03/22 06:03:46;;;;;;;;;;;103.10;1715.20;;;;;;5052941;28;20017;-76
2022/03/22 06:06:12;;;;;;;56.90;26.70;;;102.90;1715.20;;;;;;5052470;28;19905;-77
2022/03/22 06:08:37;;;;;;;;;;;102.90;1740.80;;;;;;5051662;28;20554;-76
2022/03/22 06:11:03;;;;;;;61.35;27.92;;;102.60;1766.40;;;;;;5051202;28;19912;-75
2022/03/22 06:13:29;;;;;;;;;;;102.50;1792.00;;;;;;5051937;28;20501;-76
2022/03/22 06:15:55;;;;;;;71.03;30.70;;;102.60;1817.60;;;;;;5052332;28;19915;-74
2022/03/22 06:18:21;;;;;;;69.25;31.48;;;102.70;1817.60;;;;;;5052407;28;20044;-75
2022/03/22 06:20:46;;;;;;;89.93;36.17;;;102.90;1817.60;;;;;;5050806;28;20102;-75
2022/03/22 06:23:13;;;;;;;;;;;103.00;1792.00;;;;;;5052700;28;20028;-74
2022/03/22 06:25:40;;;;;;;62.10;28.50;;;103.10;1792.00;;;;;;5052221;28;19924;-78
2022/03/22 06:28:09;;;;;;;76.68;33.17;;;103.20;1766.40;;;;;;5051042;28;20044;-75
2022/03/22 06:30:35;;;;;;;79.50;31.52;;;103.30;1740.80;;;;;;5052555;28;20028;-74
2022/03/22 06:33:12;;;;;;;81.97;31.45;;;128.10;1766.40;;;;;;5052342;28;20029;-79
2022/03/22 06:35:40;;;;;;;74.95;29.80;;;128.40;1740.80;;;;;;5050376;28;20536;-75
2022/03/22 06:38:06;;;;;;;82.75;29.55;;;128.50;1715.20;;;;;;5050996;28;20110;-75
2022/03/22 06:40:38;;;;;;;55.00;24.88;;;128.70;1689.60;;;;;;5047516;28;20025;-74
2022/03/22 06:43:05;;;;;;;51.28;26.15;;;153.60;1664.00;;;;;;5032255;28;20378;-76
2022/03/22 06:45:31;;;;;;;52.50;24.92;;;153.60;1638.40;;;;;;5043216;28;20043;-75
2022/03/22 06:47:57;;;;;;;;;;;153.80;1612.80;;;;;;5051208;28;20068;-75
2022/03/22 06:50:24;;;;;;;59.38;23.70;;;154.10;1587.20;;;;;;5051986;28;19955;-76
2022/03/22 06:52:50;;;;;;;45.55;22.02;;;154.20;1587.20;;;;;;5055430;28;20024;-77
2022/03/22 06:55:18;;;;;;;52.38;23.98;;;154.20;1612.80;;;;;;5055588;28;20048;-75
2022/03/22 06:57:44;;;;;;;53.35;24.85;;;179.20;1587.20;;;;;;5049379;28;20041;-75
2022/03/22 07:00:15;;;;;;;52.50;24.65;;;179.50;1561.60;;;;;;5034719;28;20405;-75
2022/03/22 07:02:41;;;;;;;61.80;25.63;;;179.70;1536.00;;;;;;5054162;28;20053;-74
2022/03/22 07:05:13;;;;;;;42.72;20.75;;;179.90;1510.40;;;;;;5054180;28;20476;-74
2022/03/22 07:07:39;;;;;;;61.25;22.00;;;179.90;1510.40;;;;;;5053301;28;20060;-76
2022/03/22 07:10:08;;;;;;;66.65;27.70;;;180.00;1536.00;;;;;;5055390;28;20025;-75
2022/03/22 07:12:34;;;;;;;47.45;23.38;;;204.90;1510.40;;;;;;5050065;28;20095;-76
2022/03/22 07:15:02;;;;;;;;;;;205.10;1484.80;;;;;;5055877;28;20055;-76
2022/03/22 07:17:28;;;;;;;66.32;26.60;;;205.30;1484.80;;;;;;5054029;28;19995;-77
2022/03/22 07:19:53;;;;;;;57.30;24.27;;;205.50;1484.80;;;;;;5055283;28;20521;-76
2022/03/22 07:22:19;;;;;;;;;;;205.70;1459.20;;;;;;5054427;28;20396;-75
2022/03/22 07:24:45;;;;;;;51.85;22.75;;;230.50;1459.20;;;;;;5053807;28;19958;-77
2022/03/22 07:27:10;;;;;;;;;;;230.60;1433.60;;;;;;5054297;28;20135;-77
2022/03/22 07:29:36;;;;;;;47.78;24.33;;;230.60;1433.60;;;;;;5054000;28;19963;-76
2022/03/22 07:32:02;;;;;;;;;;;230.80;1408.00;;;;;;5055303;28;20024;-76
2022/03/22 07:34:28;;;;;;;40.50;19.65;;;230.90;1382.40;;;;;;5053732;28;19912;-77
2022/03/22 07:36:54;;;;;;;;;;;231.10;1356.80;;;;;;5054672;28;20029;-79
2022/03/22 07:39:21;;;;;;;52.42;28.92;;;231.10;1331.20;;;;;;5053810;28;19904;-77
2022/03/22 07:41:48;;;;;;;42.95;21.95;;;231.20;1331.20;;;;;;5045523;28;20028;-77
2022/03/22 07:44:15;;;;;;;43.05;23.40;;;231.30;1356.80;;;;;;5053450;28;20380;-78
2022/03/22 07:46:42;;;;;;;38.33;20.15;;;231.30;1356.80;;;;;;5053337;28;20028;-78
2022/03/22 07:54:39;;;;;;;39.55;18.85;;;256.20;1305.60;;;;;;5051535;28;20385;-76
2022/03/22 07:57:07;;;;;;;37.03;20.30;;;256.40;1305.60;;;;;;5052964;28;20131;-76
2022/03/22 07:59:33;;;;;;;32.75;19.75;;;256.50;1280.00;;;;;;5054112;28;20021;-78
2022/03/22 08:01:59;;;;;;;51.17;25.40;;;256.60;1254.40;;;;;;5053112;28;20024;-76
2022/03/22 08:04:26;;;;;;;51.97;23.98;;;256.70;1280.00;;;;;;5053617;28;20108;-78
2022/03/22 08:06:52;;;;;;;48.30;21.02;;;256.80;1280.00;;;;;;5054794;28;20146;-77
2022/03/22 08:09:18;;;;;;;;;;;256.90;1280.00;;;;;;5054559;28;20428;-80
2022/03/22 08:11:44;;;;;;;37.45;19.35;;;281.60;1280.00;;;;;;5053712;28;19904;-80
2022/03/22 08:14:09;;;;;;;;;;;281.70;1280.00;;;;;;5054494;28;20075;-76
2022/03/22 08:16:36;;;;;;;40.63;18.48;;;281.70;1254.40;;;;;;5054083;28;19905;-76
2022/03/22 08:19:05;;;;;;;37.72;20.42;;;281.80;1254.40;;;;;;5052957;28;20052;-77
2022/03/22 08:21:31;;;;;;;35.78;18.60;;;281.90;1254.40;;;;;;5052263;28;20048;-77
2022/03/22 08:23:57;;;;;;;23.95;14.57;;;282.00;1228.80;;;;;;5052549;28;20469;-77
2022/03/22 08:26:23;;;;;;;23.75;15.18;;;282.00;1228.80;;;;;;5053535;28;20475;-76
2022/03/22 08:28:49;;;;;;;;;;;282.10;1228.80;;;;;;5053043;28;20071;-78
2022/03/22 08:31:15;;;;;;;26.23;15.35;;;282.20;1228.80;;;;;;5052792;28;19909;-76
2022/03/22 08:33:41;;;;;;;;;;;282.20;1203.20;;;;;;5053514;28;20036;-77
2022/03/22 08:36:07;;;;;;;30.90;14.70;;;282.30;1203.20;;;;;;5052363;28;19912;-77
2022/03/22 08:38:33;;;;;;;22.42;12.93;;;282.30;1228.80;;;;;;5052445;28;20385;-77
2022/03/22 08:40:59;;;;;;;;;;;282.40;1203.20;;;;;;5041896;28;20045;-77
2022/03/22 08:43:25;;;;;;;23.02;14.32;;;282.50;1203.20;;;;;;5046874;28;19951;-78
2022/03/22 08:45:52;;;;;;;25.42;13.43;;;282.50;1203.20;;;;;;5054072;28;20025;-77
2022/03/22 08:48:18;;;;;;;30.00;15.55;;;307.20;1228.80;;;;;;5053973;28;20025;-75
2022/03/22 08:50:47;;;;;;;25.17;15.77;;;307.60;1254.40;;;;;;5052914;28;20502;-77
2022/03/22 08:53:13;;;;;;;21.88;13.73;;;307.50;1203.20;;;;;;5053126;28;20037;-77
2022/03/22 08:55:39;;;;;;;25.55;15.05;;;307.60;1177.60;;;;;;5053936;28;20194;-77
2022/03/22 08:58:06;;;;;;;25.90;13.52;;;307.70;1177.60;;;;;;5051618;28;20149;-77
2022/03/22 09:00:33;;;;;;;26.65;15.32;;;307.80;1177.60;;;;;;5051887;28;20037;-76
2022/03/22 09:03:00;;;;;;;23.58;12.60;;;307.90;1177.60;;;;;;5053163;28;20032;-76
2022/03/22 09:08:11;;;;;;;23.13;14.25;;;308.10;1126.40;;;;;;5051786;28;20043;-79
2022/03/22 09:10:37;;;;;;;24.70;14.18;;;332.80;1152.00;;;;;;5052538;28;20020;-77
2022/03/22 09:13:05;;;;;;;25.88;14.98;;;332.90;1152.00;;;;;;5051780;28;20472;-76
2022/03/22 09:15:32;;;;;;;22.55;13.73;;;332.90;1152.00;;;;;;5052287;28;20016;-75
2022/03/22 09:17:58;;;;;;;25.98;14.15;;;333.00;1177.60;;;;;;5052299;28;20053;-75
2022/03/22 09:20:26;;;;;;;19.42;12.98;;;333.10;1152.00;;;;;;5052321;28;20056;-75
2022/03/22 09:22:53;;;;;;;34.28;13.13;;;333.20;1152.00;;;;;;5053301;28;20017;-74
2022/03/22 09:25:22;;;;;;;25.20;11.95;;;333.30;1177.60;;;;;;5051587;28;20060;-76
2022/03/22 09:27:49;;;;;;;31.05;12.85;;;333.30;1152.00;;;;;;5053272;28;20041;-74
2022/03/22 09:30:16;;;;;;;33.38;19.58;;;333.50;1152.00;;;;;;5052045;28;20093;-75
2022/03/22 09:32:45;;;;;;;22.73;14.52;;;333.60;1152.00;;;;;;5051976;28;20473;-75
2022/03/22 09:35:13;;;;;;;32.70;14.13;;;333.70;1126.40;;;;;;5051983;28;20032;-75
2022/03/22 09:37:44;;;;;;;26.65;14.63;;;358.50;1126.40;;;;;;5053186;28;20056;-75
2022/03/22 09:40:12;;;;;;;33.67;16.92;;;358.50;1126.40;;;;;;5051956;28;20025;-74
2022/03/22 09:42:42;;;;;;;20.60;12.23;;;358.70;1126.40;;;;;;5053034;28;20057;-74
2022/03/22 09:45:09;;;;;;;23.10;12.48;;;358.80;1126.40;;;;;;5053157;28;20024;-75
2022/03/22 09:47:37;;;;;;;25.20;13.18;;;358.90;1100.80;;;;;;5052693;28;20036;-75
2022/03/22 09:50:06;;;;;;;25.52;13.43;;;359.00;1100.80;;;;;;5052666;28;20053;-74
2022/03/22 09:52:34;;;;;;;27.63;14.43;;;358.90;1075.20;;;;;;5051762;28;20029;-75
2022/03/22 09:55:00;;;;;;;21.88;12.95;;;359.20;1075.20;;;;;;5051439;28;20115;-75
2022/03/22 09:57:28;;;;;;;21.00;13.45;;;384.00;1075.20;;;;;;5052734;28;20112;-75
2022/03/22 09:59:53;;;;;;;19.10;12.05;;;384.10;1049.60;;;;;;5051151;28;20017;-74
2022/03/22 10:02:30;;;;;;;26.90;13.25;;;384.20;1049.60;;;;;;5050853;28;20401;-75
2022/03/22 10:04:56;;;;;;;;;;;384.40;1049.60;;;;;;5041627;28;20033;-76
2022/03/22 10:07:23;;;;;;;19.70;11.65;;;384.50;1049.60;;;;;;5052908;28;20008;-76
2022/03/22 10:10:05;;;;;;;22.33;11.95;;;384.60;1049.60;;;;;;5052135;28;20067;-74
2022/03/22 10:12:38;;;;;;;19.75;11.77;;;384.80;1024.00;;;;;;5051033;28;20369;-74
2022/03/22 10:15:15;;;;;;;27.30;12.77;;;409.60;1049.60;;;;;;5052066;28;20029;-76
2022/03/22 10:17:43;;;;;;;20.02;11.13;;;409.70;1024.00;;;;;;5051116;28;20028;-74
2022/03/22 10:20:20;;;;;;;22.85;13.05;;;409.80;1024.00;;;;;;5052350;28;20075;-75
2022/03/22 10:22:53;;;;;;;34.90;16.92;;;410.10;1024.00;;;;;;5048533;28;20017;-75
2022/03/22 10:25:19;;;;;;;29.63;14.57;;;410.20;1024.00;;;;;;5053575;28;20497;-75
2022/03/22 10:27:45;;;;;;;22.20;12.77;;;410.20;1024.00;;;;;;5056682;28;20083;-74
2022/03/22 10:30:11;;;;;;;21.48;12.27;;;410.40;1024.00;;;;;;5056468;28;20021;-74
2022/03/22 10:32:42;;;;;;;23.67;13.02;;;435.20;998.40;;;;;;5055274;28;20426;-74
2022/03/22 10:35:20;;;;;;;47.13;25.20;;;435.50;998.40;;;;;;5056268;28;20017;-74
2022/03/22 10:37:48;;;;;;;47.63;28.60;;;435.60;972.80;;;;;;5055132;28;20473;-74
2022/03/22 10:40:33;;;;;;;23.13;12.63;;;435.60;972.80;;;;;;5056254;28;20020;-77
2022/03/22 10:43:05;;;;;;;22.17;12.35;;;435.70;947.20;;;;;;5055026;28;20032;-75
2022/03/22 10:45:50;;;;;;;22.95;13.70;;;435.80;921.60;;;;;;5054219;28;20382;-76
2022/03/22 10:48:17;;;;;;;25.77;13.55;;;435.90;921.60;;;;;;5054338;28;20124;-76
2022/03/22 10:50:46;;;;;;;20.80;11.88;;;436.10;972.80;;;;;;5055669;28;20017;-76
2022/03/22 10:53:16;;;;;;;20.35;11.27;;;460.80;947.20;;;;;;5055989;28;20052;-75
2022/03/22 10:55:44;;;;;;;18.38;11.45;;;461.00;947.20;;;;;;5054484;28;20112;-75
2022/03/22 10:58:13;;;;;;;22.35;11.18;;;461.20;947.20;;;;;;5056082;28;20037;-74
2022/03/22 11:00:42;;;;;;;19.70;11.07;;;461.10;921.60;;;;;;5056210;28;20111;-76
2022/03/22 11:03:09;;;;;;;19.20;11.25;;;461.20;896.00;;;;;;5056173;28;20032;-75
2022/03/22 11:05:36;;;;;;;16.30;10.82;;;461.50;921.60;;;;;;5056061;28;20154;-75
2022/03/22 11:08:03;;;;;;;19.23;11.82;;;461.50;921.60;;;;;;5054251;28;20052;-75
2022/03/22 11:10:31;;;;;;;21.15;10.25;;;461.60;896.00;;;;;;5055505;28;20393;-76
2022/03/22 11:12:58;;;;;;;16.48;10.35;;;486.40;896.00;;;;;;5053848;28;20029;-75
2022/03/22 11:15:29;;;;;;;15.93;10.98;;;461.70;870.40;;;;;;5055567;28;20071;-77
2022/03/22 11:17:56;;;;;;;17.80;10.98;;;486.60;896.00;;;;;;5054495;28;20029;-75
2022/03/22 11:20:27;;;;;;;16.02;10.70;;;486.80;870.40;;;;;;5055046;28;20032;-75
2022/03/22 11:22:55;;;;;;;17.70;10.23;;;486.80;870.40;;;;;;5055136;28;20020;-75
2022/03/22 11:25:31;;;;;;;15.75;10.00;;;486.60;870.40;;;;;;5053512;28;20090;-74
2022/03/22 11:28:05;;;;;;;17.05;10.13;;;486.60;870.40;;;;;;5055526;28;20033;-77
2022/03/22 11:30:31;;;;;;;21.35;12.60;;;486.80;844.80;;;;;;5054244;28;20029;-77
2022/03/22 11:35:59;;;;;;;25.20;10.60;;;487.00;870.40;;;;;;5055689;28;20032;-75
2022/03/22 11:38:34;;;;;;;17.45;9.35;;;487.00;844.80;;;;;;5054119;28;20025;-76
2022/03/22 11:43:44;;;;;;;15.77;8.63;;;487.10;844.80;;;;;;5055145;28;20032;-74
2022/03/22 11:46:10;;;;;;;29.67;18.33;;;487.20;819.20;;;;;;5054853;28;20025;-77
2022/03/22 11:48:39;;;;;;;25.15;10.73;;;487.30;844.80;;;;;;5054928;28;20060;-76
2022/03/22 11:51:09;;;;;;;22.25;12.60;;;487.30;819.20;;;;;;5053591;28;20048;-75
2022/03/22 11:53:42;;;;;;;17.92;10.85;;;487.30;819.20;;;;;;5053449;28;20103;-78
2022/03/22 11:56:09;;;;;;;14.77;10.00;;;512.10;819.20;;;;;;5053587;28;20127;-77
2022/03/22 11:58:35;;;;;;;18.67;9.60;;;512.60;819.20;;;;;;5053536;28;20029;-75
2022/03/22 12:01:01;;;;;;;17.40;10.02;;;512.30;793.60;;;;;;5054261;28;20021;-74
2022/03/22 12:03:33;;;;;;;15.70;9.35;;;512.30;793.60;;;;;;5054361;28;20063;-75
2022/03/22 12:06:12;;;;;;;18.08;8.88;;;512.20;793.60;;;;;;5052880;28;20025;-76
2022/03/22 12:08:38;;;;;;;14.75;9.45;;;512.60;819.20;;;;;;5052905;28;20041;-76
2022/03/22 12:11:05;;;;;;;18.25;9.75;;;512.70;793.60;;;;;;5052762;28;20029;-78
2022/03/22 12:13:31;;;;;;;22.35;11.40;;;512.80;793.60;;;;;;5054283;28;20477;-77
2022/03/22 12:15:58;;;;;;;19.70;9.77;;;512.90;793.60;;;;;;5053091;28;20021;-77
2022/03/22 12:18:31;;;;;;;16.85;9.68;;;512.90;793.60;;;;;;5053272;28;20389;-76
2022/03/22 12:20:58;;;;;;;14.30;9.32;;;512.90;793.60;;;;;;5053469;28;20021;-77
2022/03/22 12:23:25;;;;;;;14.93;8.93;;;512.80;793.60;;;;;;5052836;28;20033;-78
2022/03/22 12:25:51;;;;;;;23.60;10.38;;;537.60;819.20;;;;;;5053649;28;20511;-78
2022/03/22 12:28:17;;;;;;;17.35;9.80;;;512.90;768.00;;;;;;5052553;28;20057;-76
2022/03/22 12:30:44;;;;;;;21.30;10.23;;;512.70;768.00;;;;;;5051296;28;20040;-77
2022/03/22 12:33:14;;;;;;;16.10;8.90;;;512.80;768.00;;;;;;5049802;28;20021;-76
2022/03/22 12:35:43;;;;;;;16.63;9.10;;;512.90;768.00;;;;;;5054001;28;20027;-76
2022/03/22 12:38:09;;;;;;;16.42;9.13;;;512.70;768.00;;;;;;5054168;28;20017;-77
2022/03/22 12:40:36;;;;;;;23.55;10.52;;;512.90;793.60;;;;;;5052708;28;20025;-77
2022/03/22 12:43:03;;;;;;;15.15;9.32;;;512.80;768.00;;;;;;5053004;28;20021;-77
2022/03/22 12:45:33;;;;;;;13.75;8.55;;;537.70;793.60;;;;;;5052853;28;20053;-76
2022/03/22 12:48:00;;;;;;;31.63;15.60;;;537.70;793.60;;;;;;5051861;28;20032;-76